Time;durP1;ratioP1;P1;durP2;ratioP2;P2;SDS_P1;SDS_P2;PMS_P1;PMS_P2;Temp;Humidity;BMP_temperature;BMP_pressure;BME280_temperature;BME280_humidity;BME280_pressure;Samples;Min_cycle;Max_cycle;Signal;HPM_P1;HPM_P2
2022/04/01 00:02:23;;;;;;;3.10;1.75;;;0.60;99.90;;;;;;5054317;28;20422;-69
2022/04/01 00:04:49;;;;;;;5.85;1.80;;;0.70;99.90;;;;;;5056372;28;20055;-68
2022/04/01 00:07:15;;;;;;;5.50;1.73;;;0.70;99.90;;;;;;5061555;28;20041;-70
2022/04/01 00:09:40;;;;;;;2.50;1.70;;;0.70;99.90;;;;;;5047174;28;20037;-70
2022/04/01 00:12:08;;;;;;;2.33;1.30;;;0.80;99.90;;;;;;5040202;28;20044;-69
2022/04/01 00:14:34;;;;;;;2.80;1.63;;;0.80;99.90;;;;;;5051128;28;20088;-70
2022/04/01 00:17:00;;;;;;;5.32;2.15;;;0.70;99.90;;;;;;5019036;28;20037;-69
2022/04/01 00:19:27;;;;;;;3.75;1.98;;;1.40;99.90;;;;;;5047048;28;20044;-70
2022/04/01 00:21:53;;;;;;;5.13;1.80;;;0.80;99.90;;;;;;5037574;28;20033;-69
2022/04/01 00:24:19;;;;;;;6.75;2.00;;;0.80;99.90;;;;;;5052824;28;20040;-70
2022/04/01 00:26:45;;;;;;;5.75;1.73;;;0.70;99.90;;;;;;5048372;28;20051;-69
2022/04/01 00:29:15;;;;;;;5.47;1.98;;;0.80;99.90;;;;;;5044095;28;20045;-69
2022/04/01 00:31:45;;;;;;;2.70;1.50;;;0.70;99.90;;;;;;5024551;28;20041;-69
2022/04/01 00:34:17;;;;;;;5.90;1.67;;;0.70;99.90;;;;;;5033427;28;20049;-68
2022/04/01 00:36:48;;;;;;;5.07;1.80;;;0.70;99.90;;;;;;5044681;28;20530;-70
2022/04/01 00:39:16;;;;;;;4.45;1.98;;;0.80;99.90;;;;;;5019317;28;20448;-69
2022/04/01 00:41:44;;;;;;;3.85;2.00;;;0.70;99.90;;;;;;5061117;28;20048;-69
2022/04/01 00:44:22;;;;;;;4.78;2.17;;;1.20;99.90;;;;;;5034045;28;20170;-69
2022/04/01 00:47:03;;;;;;;4.80;1.70;;;0.70;99.90;;;;;;5039820;28;20065;-70
2022/04/01 00:49:29;;;;;;;3.00;1.70;;;0.70;99.90;;;;;;5066690;28;20048;-69
2022/04/01 00:51:58;;;;;;;3.25;1.70;;;0.80;99.90;;;;;;5051486;28;20047;-69
2022/04/01 00:54:24;;;;;;;5.82;1.63;;;0.80;99.90;;;;;;5071759;28;20476;-69
2022/04/01 00:56:50;;;;;;;10.05;1.80;;;1.00;99.90;;;;;;5053370;28;20044;-69
2022/04/01 00:59:18;;;;;;;8.07;2.08;;;0.80;99.90;;;;;;5049912;28;20076;-69
2022/04/01 01:01:43;;;;;;;5.03;1.87;;;0.80;99.90;;;;;;5048869;28;20120;-69
2022/04/01 01:04:13;;;;;;;4.18;1.92;;;0.80;99.90;;;;;;5070636;28;20120;-69
2022/04/01 01:06:45;;;;;;;3.38;1.58;;;0.80;99.90;;;;;;5070287;28;20394;-70
2022/04/01 01:09:11;;;;;;;4.07;1.88;;;0.80;99.90;;;;;;5024007;28;20040;-69
2022/04/01 01:11:38;;;;;;;5.43;1.92;;;0.80;99.90;;;;;;5067662;28;20082;-70
2022/04/01 01:14:04;;;;;;;5.10;1.83;;;1.40;99.90;;;;;;5052931;28;20033;-71
2022/04/01 01:16:31;;;;;;;4.53;1.90;;;0.80;99.90;;;;;;5053240;28;20159;-68
2022/04/01 01:19:08;;;;;;;3.58;1.70;;;0.80;99.90;;;;;;5071316;28;20037;-69
2022/04/01 01:21:34;;;;;;;6.43;2.00;;;0.80;99.90;;;;;;5070719;28;20040;-70
2022/04/01 01:24:05;;;;;;;7.25;2.33;;;0.80;99.90;;;;;;5069521;28;20032;-69
2022/04/01 01:26:32;;;;;;;6.35;2.00;;;0.90;99.90;;;;;;5067866;28;20059;-70
2022/04/01 01:28:59;;;;;;;5.50;1.67;;;0.90;99.90;;;;;;5068212;28;20051;-69
2022/04/01 01:31:25;;;;;;;6.07;2.72;;;0.90;99.90;;;;;;5049901;28;20059;-69
2022/04/01 01:33:53;;;;;;;4.05;1.77;;;0.90;99.90;;;;;;5070619;28;20394;-69
2022/04/01 01:36:19;;;;;;;6.45;2.45;;;1.00;99.90;;;;;;5052439;28;20040;-69
2022/04/01 01:38:45;;;;;;;6.85;1.90;;;1.00;99.90;;;;;;5052580;28;20367;-68
2022/04/01 01:41:11;;;;;;;4.47;1.95;;;1.00;99.90;;;;;;5065337;28;20124;-68
2022/04/01 01:43:38;;;;;;;3.15;1.67;;;1.10;99.90;;;;;;5064898;28;20032;-69
2022/04/01 01:46:04;;;;;;;4.72;1.80;;;1.00;99.90;;;;;;5053238;28;20402;-69
2022/04/01 01:48:29;;;;;;;5.10;2.00;;;1.00;99.90;;;;;;5046620;28;20057;-69
2022/04/01 01:56:24;;;;;;;6.25;1.98;;;1.10;99.90;;;;;;5069118;28;20127;-69
2022/04/01 01:58:50;;;;;;;5.28;2.17;;;1.10;99.90;;;;;;5053344;28;20050;-69
2022/04/01 02:01:16;;;;;;;3.60;1.73;;;1.10;99.90;;;;;;5053020;28;20040;-69
2022/04/01 02:03:42;;;;;;;8.27;2.58;;;1.10;99.90;;;;;;5081338;28;20390;-69
2022/04/01 02:06:07;;;;;;;3.75;1.67;;;1.10;99.90;;;;;;5035759;28;20091;-69
2022/04/01 02:08:33;;;;;;;2.85;1.80;;;1.20;99.90;;;;;;5071048;28;20094;-70
2022/04/01 02:10:59;;;;;;;6.57;1.98;;;1.20;99.90;;;;;;5071378;28;20044;-69
2022/04/01 02:13:29;;;;;;;5.05;1.60;;;1.20;99.90;;;;;;5070197;28;20067;-69
2022/04/01 02:15:55;;;;;;;4.03;1.60;;;1.20;99.90;;;;;;5070646;28;20028;-70
2022/04/01 02:18:21;;;;;;;5.90;1.85;;;1.20;99.90;;;;;;5048707;28;20500;-68
2022/04/01 02:20:48;;;;;;;4.50;1.80;;;1.20;99.90;;;;;;5052196;28;20414;-69
2022/04/01 02:23:14;;;;;;;5.25;1.70;;;1.30;99.90;;;;;;5068046;28;20482;-69
2022/04/01 02:25:42;;;;;;;4.95;1.85;;;1.20;99.90;;;;;;5052501;28;20045;-69
2022/04/01 02:28:08;;;;;;;;;;;1.30;99.90;;;;;;5070582;28;20086;-69
2022/04/01 02:30:34;;;;;;;6.20;1.48;;;1.30;99.90;;;;;;5073060;28;19920;-69
2022/04/01 02:33:00;;;;;;;6.38;1.83;;;1.20;99.90;;;;;;5052825;28;20490;-69
2022/04/01 02:35:26;;;;;;;7.43;1.88;;;1.20;99.90;;;;;;5073275;28;20048;-70
2022/04/01 02:37:52;;;;;;;5.25;1.85;;;1.20;99.90;;;;;;5054956;28;20173;-68
2022/04/01 02:40:17;;;;;;;2.97;2.00;;;1.20;99.90;;;;;;5071676;28;20032;-69
2022/04/01 02:42:43;;;;;;;8.88;2.03;;;1.20;99.90;;;;;;5072884;28;20097;-69
2022/04/01 02:45:09;;;;;;;4.80;1.75;;;1.20;99.90;;;;;;5074635;28;20036;-69
2022/04/01 02:47:35;;;;;;;5.60;1.90;;;1.20;99.90;;;;;;5055979;28;20059;-69
2022/04/01 02:50:01;;;;;;;13.02;2.72;;;1.20;99.90;;;;;;5056536;28;20048;-69
2022/04/01 02:52:27;;;;;;;4.18;1.83;;;1.20;99.90;;;;;;5058897;28;20044;-69
2022/04/01 02:54:53;;;;;;;4.60;2.00;;;1.20;99.90;;;;;;5073899;28;20123;-68
2022/04/01 02:57:20;;;;;;;9.05;1.73;;;1.20;99.90;;;;;;5055289;28;20044;-69
2022/04/01 02:59:47;;;;;;;5.38;1.90;;;1.80;99.90;;;;;;5073093;28;20044;-68
2022/04/01 03:02:14;;;;;;;5.47;1.38;;;2.10;99.90;;;;;;5074008;28;20090;-69
2022/04/01 03:04:40;;;;;;;3.92;1.60;;;1.20;99.90;;;;;;5073822;28;20083;-69
2022/04/01 03:07:06;;;;;;;3.90;1.45;;;1.30;99.90;;;;;;5050382;28;20032;-69
2022/04/01 03:09:33;;;;;;;4.82;1.85;;;1.20;99.90;;;;;;5057061;28;20114;-68
2022/04/01 03:12:00;;;;;;;4.63;1.98;;;1.30;99.90;;;;;;5080474;28;20072;-69
2022/04/01 03:14:26;;;;;;;5.68;1.42;;;1.20;99.90;;;;;;5077548;28;20059;-69
2022/04/01 03:16:53;;;;;;;9.60;2.05;;;1.30;99.90;;;;;;5071574;28;20048;-69
2022/04/01 03:19:19;;;;;;;5.57;2.10;;;1.20;99.90;;;;;;5071829;28;20044;-69
2022/04/01 03:21:45;;;;;;;12.82;2.28;;;1.20;99.90;;;;;;5073647;28;20127;-70
2022/04/01 03:24:14;;;;;;;4.43;1.60;;;1.30;99.90;;;;;;5072467;28;20127;-68
2022/04/01 03:26:40;;;;;;;3.05;1.60;;;1.30;99.90;;;;;;5054038;28;20044;-68
2022/04/01 03:29:07;;;;;;;4.82;1.85;;;1.30;99.90;;;;;;5074225;28;20048;-69
2022/04/01 03:31:33;;;;;;;3.75;1.58;;;1.30;99.90;;;;;;5052934;28;20048;-69
2022/04/01 03:33:59;;;;;;;6.05;1.88;;;1.30;99.90;;;;;;5073750;28;20048;-69
2022/04/01 03:36:25;;;;;;;7.07;1.70;;;1.30;99.90;;;;;;5054641;28;20044;-70
2022/04/01 03:38:51;;;;;;;5.47;1.60;;;1.30;99.90;;;;;;5072028;28;20145;-70
2022/04/01 03:41:17;;;;;;;3.45;1.45;;;1.30;99.90;;;;;;5073503;28;20041;-69
2022/04/01 03:43:43;;;;;;;3.97;1.48;;;1.30;99.90;;;;;;5055079;28;20131;-69
2022/04/01 03:46:13;;;;;;;4.80;1.60;;;1.30;99.90;;;;;;5054495;28;20037;-69
2022/04/01 03:48:48;;;;;;;5.65;1.42;;;1.30;99.90;;;;;;5056011;28;20048;-70
2022/04/01 03:51:28;;;;;;;6.95;2.20;;;1.40;99.90;;;;;;5033984;28;20049;-69
2022/04/01 03:54:01;;;;;;;4.13;1.65;;;1.30;99.90;;;;;;5072992;28;20040;-69
2022/04/01 03:56:34;;;;;;;5.13;1.70;;;1.30;99.90;;;;;;5070327;28;20052;-69
2022/04/01 03:59:03;;;;;;;6.07;1.95;;;1.40;99.90;;;;;;5032751;28;20127;-69
2022/04/01 04:01:34;;;;;;;7.22;1.60;;;1.40;99.90;;;;;;5071392;28;20044;-68
2022/04/01 04:04:01;;;;;;;9.20;2.42;;;1.40;99.90;;;;;;5068900;28;20048;-69
2022/04/01 04:06:27;;;;;;;2.78;1.48;;;1.40;99.90;;;;;;5055019;28;20101;-70
2022/04/01 04:09:03;;;;;;;5.47;1.55;;;1.40;99.90;;;;;;5071613;28;20049;-69
2022/04/01 04:11:31;;;;;;;5.20;1.60;;;1.40;99.90;;;;;;5068287;28;20044;-70
2022/04/01 04:14:00;;;;;;;4.40;1.75;;;1.40;99.90;;;;;;5072400;28;20035;-69
2022/04/01 04:16:47;;;;;;;4.63;1.45;;;1.40;99.90;;;;;;5053957;28;20040;-70
2022/04/01 04:19:13;;;;;;;9.27;1.83;;;1.50;99.90;;;;;;5054465;28;20036;-68
2022/04/01 04:21:54;;;;;;;5.97;1.90;;;1.50;99.90;;;;;;5071380;28;20073;-68
2022/04/01 04:24:33;;;;;;;4.13;1.73;;;1.50;99.90;;;;;;5069804;28;20040;-69
2022/04/01 04:27:06;;;;;;;;;;;1.50;99.90;;;;;;5052101;28;20199;-69
2022/04/01 04:29:35;;;;;;;9.93;1.95;;;1.50;99.90;;;;;;5071606;28;19973;-68
2022/04/01 04:32:06;;;;;;;4.93;1.77;;;1.50;99.90;;;;;;5069387;28;20040;-70
2022/04/01 04:34:37;;;;;;;11.68;1.88;;;1.50;99.90;;;;;;5035653;28;20087;-69
2022/04/01 04:37:08;;;;;;;5.57;1.90;;;1.50;99.90;;;;;;5068180;28;20036;-69
2022/04/01 04:39:35;;;;;;;5.00;2.38;;;1.50;99.90;;;;;;5075226;28;20052;-70
2022/04/01 04:42:02;;;;;;;4.75;2.00;;;1.60;99.90;;;;;;5070854;28;20071;-69
2022/04/01 04:44:30;;;;;;;4.10;1.60;;;1.60;99.90;;;;;;5068212;28;20355;-69
2022/04/01 04:46:57;;;;;;;6.15;1.90;;;2.50;99.90;;;;;;5068057;28;20505;-68
2022/04/01 04:49:24;;;;;;;7.57;1.50;;;1.60;99.90;;;;;;5069624;28;20041;-68
2022/04/01 04:51:52;;;;;;;4.17;1.67;;;1.50;99.90;;;;;;5037345;28;20039;-69
2022/04/01 04:54:19;;;;;;;3.92;1.63;;;1.60;99.90;;;;;;5071393;28;20282;-68
2022/04/01 04:56:46;;;;;;;7.18;1.73;;;1.50;99.90;;;;;;5070082;28;21436;-69
2022/04/01 04:59:12;;;;;;;4.72;1.60;;;1.60;99.90;;;;;;5058024;28;20045;-68
2022/04/01 05:01:43;;;;;;;2.85;1.55;;;1.60;99.90;;;;;;5079184;28;20075;-69
2022/04/01 05:04:39;;;;;;;3.28;1.55;;;1.60;99.90;;;;;;5045664;28;20111;-69
2022/04/01 05:07:20;;;;;;;3.20;1.60;;;1.60;99.90;;;;;;5055194;28;20032;-69
2022/04/01 05:09:53;;;;;;;6.50;1.63;;;1.50;99.90;;;;;;5049934;28;20056;-69
2022/04/01 05:12:44;;;;;;;3.65;1.70;;;1.50;99.90;;;;;;5069736;28;20044;-69
2022/04/01 05:15:11;;;;;;;4.60;1.85;;;1.60;99.90;;;;;;5057538;28;20036;-70
2022/04/01 05:18:00;;;;;;;7.03;1.65;;;1.60;99.90;;;;;;5053385;28;20157;-70
2022/04/01 05:20:28;;;;;;;5.43;1.92;;;1.60;99.90;;;;;;5051491;28;20481;-70
2022/04/01 05:22:56;;;;;;;4.00;1.60;;;1.60;99.90;;;;;;5069059;28;20044;-69
2022/04/01 05:25:25;;;;;;;6.18;2.08;;;1.60;99.90;;;;;;5068155;28;20045;-68
2022/04/01 05:27:58;;;;;;;2.50;1.50;;;1.60;99.90;;;;;;5067082;28;20051;-69
2022/04/01 05:30:28;;;;;;;5.45;1.80;;;1.60;99.90;;;;;;5034909;28;20120;-68
2022/04/01 05:33:15;;;;;;;10.95;2.38;;;1.60;99.90;;;;;;5069797;28;20097;-70
2022/04/01 05:35:43;;;;;;;4.03;1.60;;;1.60;99.90;;;;;;5065368;28;20080;-69
2022/04/01 05:38:09;;;;;;;;;;;1.70;99.90;;;;;;5070547;28;20037;-69
2022/04/01 05:40:37;;;;;;;6.03;1.80;;;1.80;99.90;;;;;;5051736;28;19986;-69
2022/04/01 05:43:04;;;;;;;8.35;1.70;;;1.60;99.90;;;;;;5071485;28;20044;-70
2022/04/01 05:45:30;;;;;;;5.20;1.67;;;1.70;99.90;;;;;;5073129;28;20123;-69
2022/04/01 05:47:57;;;;;;;4.85;2.00;;;1.70;99.90;;;;;;5068584;28;20053;-68
2022/04/01 05:50:24;;;;;;;6.68;1.70;;;1.70;99.90;;;;;;5057342;28;20057;-68
2022/04/01 05:52:52;;;;;;;5.75;1.50;;;1.70;99.90;;;;;;5037413;28;20060;-68
2022/04/01 05:55:23;;;;;;;5.93;2.13;;;1.70;99.90;;;;;;5051651;28;20120;-69
2022/04/01 05:57:49;;;;;;;4.93;1.70;;;1.70;99.90;;;;;;5066875;28;20548;-70
2022/04/01 06:00:15;;;;;;;3.90;1.80;;;1.70;99.90;;;;;;5051566;28;20053;-66
2022/04/01 06:02:53;;;;;;;6.85;1.90;;;1.70;99.90;;;;;;5039116;28;20127;-68
2022/04/01 06:05:42;;;;;;;3.33;2.22;;;1.80;99.90;;;;;;5067782;28;20386;-68
2022/04/01 06:08:29;;;;;;;3.75;1.55;;;1.80;99.90;;;;;;5054149;28;20047;-69
2022/04/01 06:11:18;;;;;;;3.50;1.77;;;1.80;99.90;;;;;;5059152;28;20174;-70
2022/04/01 06:14:07;;;;;;;8.35;1.75;;;1.80;99.90;;;;;;5030212;28;20051;-70
2022/04/01 06:16:44;;;;;;;3.15;1.50;;;1.80;99.90;;;;;;5068479;28;20482;-68
2022/04/01 06:19:24;;;;;;;5.47;1.65;;;1.80;99.90;;;;;;5050642;28;20037;-69
2022/04/01 06:22:03;;;;;;;6.05;1.85;;;1.80;99.90;;;;;;5070509;28;20044;-69
2022/04/01 06:24:51;;;;;;;5.50;1.98;;;1.80;99.90;;;;;;5059302;28;20475;-68
2022/04/01 06:27:28;;;;;;;5.10;1.52;;;1.80;99.90;;;;;;5070049;28;20033;-69
2022/04/01 06:30:07;;;;;;;3.20;1.80;;;1.90;99.90;;;;;;5067886;28;20390;-68
2022/04/01 06:32:40;;;;;;;5.00;1.50;;;1.90;99.90;;;;;;5068550;28;20041;-69
2022/04/01 06:35:18;;;;;;;6.18;2.35;;;1.90;99.90;;;;;;5071089;28;20344;-69
2022/04/01 06:38:01;;;;;;;3.80;1.92;;;2.00;99.90;;;;;;5054375;28;20474;-68
2022/04/01 06:40:55;;;;;;;5.00;1.35;;;2.00;99.90;;;;;;5045786;28;20040;-69
2022/04/01 06:43:21;;;;;;;3.40;1.70;;;1.80;99.90;;;;;;5059575;28;20049;-70
2022/04/01 06:45:47;;;;;;;5.18;1.70;;;2.00;99.90;;;;;;5050143;28;20040;-70
2022/04/01 06:48:13;;;;;;;7.80;1.75;;;2.10;99.90;;;;;;5069709;28;20110;-69
2022/04/01 06:50:38;;;;;;;4.88;1.70;;;2.10;99.90;;;;;;5034407;28;20045;-69
2022/04/01 06:53:05;;;;;;;7.35;1.35;;;2.70;99.90;;;;;;5061067;28;20478;-70
2022/04/01 06:55:34;;;;;;;5.47;2.20;;;2.10;99.90;;;;;;5070812;28;20139;-70
2022/04/01 06:58:00;;;;;;;5.07;1.70;;;2.10;99.90;;;;;;5035332;28;20119;-68
2022/04/01 07:00:26;;;;;;;6.38;1.95;;;2.20;99.90;;;;;;5062526;28;20379;-70
2022/04/01 07:02:52;;;;;;;1.50;1.33;;;2.20;99.90;;;;;;5071967;28;20064;-69
2022/04/01 07:05:18;;;;;;;2.90;1.45;;;2.20;99.90;;;;;;5067351;28;20083;-70
2022/04/01 07:07:44;;;;;;;5.45;1.33;;;2.20;99.90;;;;;;5070407;28;20044;-69
2022/04/01 07:10:13;;;;;;;4.13;1.30;;;2.20;99.90;;;;;;5089361;28;20443;-69
2022/04/01 07:12:39;;;;;;;4.13;1.35;;;2.20;99.90;;;;;;5069862;28;20440;-69
2022/04/01 07:15:07;;;;;;;4.05;1.63;;;2.20;99.90;;;;;;5068930;28;20037;-70
2022/04/01 07:17:33;;;;;;;9.35;1.40;;;2.20;99.90;;;;;;5055354;28;20116;-68
2022/04/01 07:19:59;;;;;;;2.42;1.20;;;2.20;99.90;;;;;;5059050;28;20501;-69
2022/04/01 07:22:25;;;;;;;2.70;1.40;;;2.20;99.90;;;;;;5073513;28;20078;-68
2022/04/01 07:24:51;;;;;;;2.90;1.45;;;2.20;99.90;;;;;;5072795;28;20492;-68
2022/04/01 07:27:17;;;;;;;4.70;1.65;;;2.20;99.90;;;;;;5045246;28;20048;-70
2022/04/01 07:29:43;;;;;;;4.07;1.60;;;2.20;99.90;;;;;;5053814;28;20052;-67
2022/04/01 07:34:53;;;;;;;4.10;1.45;;;2.20;99.90;;;;;;5059708;28;20063;-69
2022/04/01 07:37:23;;;;;;;2.80;1.35;;;2.20;99.90;;;;;;5071846;28;20033;-69
2022/04/01 07:39:51;;;;;;;3.38;1.85;;;2.20;99.90;;;;;;5070983;28;20055;-68
2022/04/01 07:42:18;;;;;;;4.95;1.70;;;2.20;99.90;;;;;;5069824;28;20517;-68
2022/04/01 07:44:44;;;;;;;4.30;1.35;;;2.20;99.90;;;;;;5070745;28;20036;-66
2022/04/01 07:47:10;;;;;;;4.40;1.98;;;2.20;99.90;;;;;;5071493;28;20422;-67
2022/04/01 07:49:39;;;;;;;5.35;1.77;;;2.20;99.90;;;;;;5070478;28;20052;-67
2022/04/01 07:52:07;;;;;;;;;;;2.20;99.90;;;;;;5072744;28;20344;-69
2022/04/01 07:54:34;;;;;;;4.95;1.60;;;2.20;99.90;;;;;;5071677;28;20023;-68
2022/04/01 07:56:59;;;;;;;4.88;1.80;;;2.10;99.90;;;;;;5054909;28;20106;-68
2022/04/01 07:59:25;;;;;;;3.30;1.60;;;2.10;99.90;;;;;;5072216;28;20474;-68
2022/04/01 08:01:51;;;;;;;5.53;2.00;;;2.10;99.90;;;;;;5072460;28;20051;-68
2022/04/01 08:04:17;;;;;;;4.18;1.70;;;2.20;99.90;;;;;;5066755;28;20045;-69
2022/04/01 08:06:43;;;;;;;5.05;1.70;;;2.20;99.90;;;;;;5069264;28;21587;-69
2022/04/01 08:09:08;;;;;;;3.70;1.60;;;2.10;99.90;;;;;;5036546;28;20505;-68
2022/04/01 08:11:34;;;;;;;3.13;1.60;;;2.10;99.90;;;;;;5068147;28;20388;-69
2022/04/01 08:14:00;;;;;;;4.97;1.73;;;2.00;99.90;;;;;;5072765;28;20603;-68
2022/04/01 08:16:26;;;;;;;7.85;1.95;;;2.40;99.90;;;;;;5071050;28;20067;-68
2022/04/01 08:18:51;;;;;;;7.97;1.98;;;2.00;99.90;;;;;;5051204;28;20130;-67
2022/04/01 08:21:17;;;;;;;3.35;1.85;;;3.10;99.90;;;;;;5070997;28;20064;-69
2022/04/01 08:23:44;;;;;;;3.10;1.83;;;2.20;99.90;;;;;;5066635;28;20049;-69
2022/04/01 08:26:11;;;;;;;2.75;1.77;;;2.40;99.90;;;;;;5069245;28;20127;-67
2022/04/01 08:28:37;;;;;;;3.58;1.60;;;2.30;99.90;;;;;;5070464;28;20137;-68
2022/04/01 08:31:03;;;;;;;4.15;1.83;;;3.90;99.90;;;;;;5069648;28;20043;-68
2022/04/01 08:33:29;;;;;;;4.47;2.00;;;2.30;99.90;;;;;;5067601;28;20032;-67
2022/04/01 08:35:56;;;;;;;4.07;1.77;;;2.40;99.90;;;;;;5050179;28;20387;-69
2022/04/01 08:38:21;;;;;;;4.30;1.98;;;2.30;99.90;;;;;;5069614;28;20046;-69
2022/04/01 08:40:47;;;;;;;5.05;2.00;;;2.40;99.90;;;;;;5049101;28;20041;-69
2022/04/01 08:43:13;;;;;;;6.47;1.88;;;2.40;99.90;;;;;;5051192;28;20032;-67
2022/04/01 08:45:39;;;;;;;5.05;1.80;;;2.50;99.90;;;;;;5067447;28;20044;-68
2022/04/01 08:48:07;;;;;;;4.05;1.80;;;2.60;99.90;;;;;;5049310;28;20147;-68
2022/04/01 08:50:33;;;;;;;3.50;1.65;;;2.60;99.90;;;;;;5067555;28;20037;-68
2022/04/01 08:53:00;;;;;;;4.10;1.58;;;2.60;99.90;;;;;;5069039;28;20055;-67
2022/04/01 08:55:25;;;;;;;2.88;1.63;;;2.50;99.90;;;;;;5069011;28;20044;-67
2022/04/01 08:57:52;;;;;;;5.05;1.85;;;2.50;99.90;;;;;;5066729;28;20437;-67
2022/04/01 09:00:17;;;;;;;8.05;2.10;;;2.60;99.90;;;;;;5068879;28;20055;-68
2022/04/01 09:02:57;;;;;;;6.68;1.90;;;2.60;99.90;;;;;;5049325;28;20052;-69
2022/04/01 09:05:23;;;;;;;2.88;1.80;;;2.70;99.90;;;;;;5063637;28;20490;-69
2022/04/01 09:07:59;;;;;;;4.85;1.63;;;2.70;99.90;;;;;;5070053;28;20045;-68
2022/04/01 09:10:24;;;;;;;4.32;1.80;;;2.70;99.90;;;;;;5069345;28;20127;-68
2022/04/01 09:12:54;;;;;;;7.13;1.88;;;2.70;99.90;;;;;;5042179;28;20128;-69
2022/04/01 09:15:20;;;;;;;5.40;1.92;;;2.70;99.90;;;;;;5058075;28;20037;-69
2022/04/01 09:17:47;;;;;;;4.47;1.90;;;2.80;99.90;;;;;;5063499;28;20043;-68
2022/04/01 09:20:14;;;;;;;7.20;2.15;;;2.80;99.90;;;;;;5056535;28;20050;-69
2022/04/01 09:22:41;;;;;;;6.35;2.22;;;3.00;99.90;;;;;;5053490;28;20401;-69
2022/04/01 09:25:09;;;;;;;3.97;2.20;;;3.10;99.90;;;;;;5069006;28;20072;-69
2022/04/01 09:27:39;;;;;;;5.68;2.30;;;3.20;99.90;;;;;;5072172;28;20049;-69
2022/04/01 09:30:06;;;;;;;7.18;2.72;;;3.30;99.90;;;;;;5053945;28;20119;-68
2022/04/01 09:32:40;;;;;;;7.38;2.60;;;3.30;99.90;;;;;;5045434;28;20040;-69
2022/04/01 09:35:07;;;;;;;9.15;2.28;;;3.40;99.90;;;;;;5062001;28;20071;-69
2022/04/01 09:37:41;;;;;;;5.18;1.90;;;3.50;99.90;;;;;;5064320;28;20110;-68
2022/04/01 09:40:10;;;;;;;5.63;1.90;;;3.50;99.90;;;;;;5064481;28;20051;-69
2022/04/01 09:42:36;;;;;;;;;;;3.60;99.90;;;;;;5031488;28;20048;-69
2022/04/01 09:45:04;;;;;;;4.13;1.92;;;3.60;99.90;;;;;;5068239;28;20378;-69
2022/04/01 09:47:37;;;;;;;9.33;2.80;;;3.70;99.90;;;;;;5063680;28;20054;-69
2022/04/01 09:50:11;;;;;;;4.43;1.75;;;3.70;99.90;;;;;;5067281;28;20410;-69
2022/04/01 09:52:37;;;;;;;3.83;2.00;;;3.70;99.90;;;;;;5066628;28;20044;-69
2022/04/01 09:55:04;;;;;;;3.20;1.88;;;3.70;99.90;;;;;;5045374;28;20056;-69
2022/04/01 09:57:30;;;;;;;2.88;1.70;;;3.50;99.90;;;;;;5058164;28;20048;-68
2022/04/01 09:59:55;;;;;;;4.70;2.03;;;3.90;99.90;;;;;;5047540;28;20140;-69
2022/04/01 10:02:21;;;;;;;5.50;2.42;;;3.90;99.90;;;;;;5026938;28;20078;-68
2022/04/01 10:04:47;;;;;;;5.30;2.13;;;4.70;99.90;;;;;;5062528;28;20039;-68
2022/04/01 10:07:13;;;;;;;5.72;2.15;;;4.10;99.90;;;;;;5034853;28;20076;-68
2022/04/01 10:09:40;;;;;;;4.22;2.15;;;4.20;99.90;;;;;;5050814;28;20525;-68
2022/04/01 10:12:12;;;;;;;5.40;1.85;;;4.20;99.90;;;;;;5067104;28;20037;-69
2022/04/01 10:14:40;;;;;;;5.50;1.90;;;4.30;99.90;;;;;;5063677;28;20041;-69
2022/04/01 10:17:09;;;;;;;;;;;4.40;99.90;;;;;;5056320;28;20048;-69
2022/04/01 10:19:39;;;;;;;4.80;2.05;;;4.70;99.90;;;;;;5068681;28;20003;-70
2022/04/01 10:22:05;;;;;;;7.55;2.00;;;4.90;99.90;;;;;;5064580;28;20428;-70
2022/04/01 10:25:01;;;;;;;6.72;2.10;;;5.10;99.90;;;;;;5058790;28;20040;-69
2022/04/01 10:27:49;;;;;;;3.92;1.80;;;5.10;99.90;;;;;;5052299;28;20064;-70
2022/04/01 10:30:16;;;;;;;7.10;2.35;;;5.20;99.90;;;;;;5046271;28;20056;-70
2022/04/01 10:32:43;;;;;;;2.90;1.60;;;6.10;99.90;;;;;;5071065;28;20040;-70
2022/04/01 10:35:26;;;;;;;3.15;1.90;;;5.20;99.90;;;;;;5063921;28;20134;-70
2022/04/01 10:38:17;;;;;;;4.68;2.08;;;5.20;99.90;;;;;;5059274;28;20037;-69
2022/04/01 10:40:45;;;;;;;3.70;2.30;;;5.30;99.90;;;;;;5056524;28;20139;-69
2022/04/01 10:43:22;;;;;;;5.80;2.20;;;5.40;99.90;;;;;;5065211;28;20082;-69
2022/04/01 10:46:10;;;;;;;4.93;2.25;;;5.40;99.90;;;;;;5047950;28;20041;-69
2022/04/01 10:51:41;;;;;;;4.75;2.00;;;5.50;99.90;;;;;;5068512;28;20048;-70
2022/04/01 10:54:12;;;;;;;4.40;1.80;;;5.60;99.90;;;;;;5063271;28;20044;-70
2022/04/01 10:56:39;;;;;;;7.53;1.90;;;5.70;99.90;;;;;;5045863;28;20055;-70
2022/04/01 10:59:21;;;;;;;7.57;2.47;;;5.60;99.90;;;;;;5050799;28;20044;-69
2022/04/01 11:01:53;;;;;;;5.88;2.17;;;5.60;99.90;;;;;;5041895;28;20052;-68
2022/04/01 11:04:21;;;;;;;5.97;2.10;;;5.50;99.90;;;;;;5072680;28;21091;-68
2022/04/01 11:06:57;;;;;;;6.63;2.50;;;5.30;99.90;;;;;;5054759;28;20076;-69
2022/04/01 11:09:32;;;;;;;7.93;2.47;;;5.20;99.90;;;;;;5063313;28;20129;-68
2022/04/01 11:12:20;;;;;;;6.43;2.20;;;5.20;99.90;;;;;;5056595;28;20490;-69
2022/04/01 11:17:35;;;;;;;8.60;2.67;;;5.20;99.90;;;;;;5068954;28;20075;-68
2022/04/01 11:20:04;;;;;;;4.78;2.20;;;5.20;99.90;;;;;;5043618;28;20071;-69
2022/04/01 11:23:02;;;;;;;6.72;2.47;;;5.20;99.90;;;;;;5061923;28;20059;-69
2022/04/01 11:25:28;;;;;;;8.32;2.38;;;5.50;99.90;;;;;;5062963;28;20556;-70
2022/04/01 11:28:14;;;;;;;5.32;2.47;;;5.70;99.90;;;;;;5061256;28;20032;-70
2022/04/01 11:31:07;;;;;;;5.05;2.10;;;5.60;99.90;;;;;;5063002;28;20044;-70
2022/04/01 11:33:33;;;;;;;4.43;2.38;;;5.60;99.90;;;;;;5038503;28;20064;-70
2022/04/01 11:35:58;;;;;;;2.63;1.60;;;5.70;99.90;;;;;;5067146;28;20090;-70
2022/04/01 11:38:26;;;;;;;2.15;1.30;;;5.80;99.90;;;;;;5049575;28;20037;-69
2022/04/01 11:40:56;;;;;;;4.50;1.90;;;5.80;99.40;;;;;;5066963;28;20102;-68
2022/04/01 11:43:24;;;;;;;7.35;1.58;;;5.60;96.00;;;;;;5055810;28;20271;-69
2022/04/01 11:45:54;;;;;;;3.20;1.40;;;5.60;96.40;;;;;;5063862;28;20049;-68
2022/04/01 11:48:34;;;;;;;4.65;1.40;;;5.40;94.00;;;;;;5073742;28;20064;-67
2022/04/01 11:51:14;;;;;;;3.70;1.50;;;5.30;93.30;;;;;;5038019;28;20037;-69
2022/04/01 11:53:53;;;;;;;4.85;1.60;;;5.30;95.00;;;;;;5073416;28;20119;-69
2022/04/01 11:56:27;;;;;;;2.92;1.50;;;5.40;93.90;;;;;;5073377;28;20040;-68
2022/04/01 11:58:59;;;;;;;5.80;1.40;;;5.60;94.60;;;;;;5073035;28;20049;-68
2022/04/01 12:01:27;;;;;;;4.55;1.50;;;5.60;94.30;;;;;;5053814;28;20072;-69
2022/04/01 12:04:08;;;;;;;5.65;1.50;;;5.50;95.80;;;;;;5063832;28;20103;-69
2022/04/01 12:09:19;;;;;;;3.55;1.70;;;5.70;96.10;;;;;;5073184;28;20056;-69
2022/04/01 12:11:48;;;;;;;5.75;1.60;;;5.50;95.80;;;;;;5052291;28;20048;-67
2022/04/01 12:14:24;;;;;;;4.45;1.30;;;5.30;94.40;;;;;;5058737;28;20508;-67
2022/04/01 12:16:49;;;;;;;3.42;1.63;;;5.30;94.60;;;;;;5046079;28;20053;-68
2022/04/01 12:19:20;;;;;;;7.40;1.90;;;5.30;96.50;;;;;;5064000;28;20043;-68
2022/04/01 12:21:54;;;;;;;8.13;1.92;;;5.10;97.50;;;;;;5075689;28;20048;-68
2022/04/01 12:24:19;;;;;;;6.63;1.92;;;5.10;98.70;;;;;;5059325;28;20047;-69
2022/04/01 12:26:48;;;;;;;7.07;2.20;;;6.00;98.20;;;;;;5073206;28;20044;-68
2022/04/01 12:29:25;;;;;;;5.95;2.08;;;5.00;98.90;;;;;;5054850;28;20056;-68
2022/04/01 12:31:59;;;;;;;8.48;2.33;;;4.90;99.50;;;;;;5054136;28;20402;-68
2022/04/01 12:34:26;;;;;;;4.40;1.88;;;4.90;98.50;;;;;;5058123;28;20090;-68
2022/04/01 12:37:06;;;;;;;3.83;2.00;;;4.70;98.70;;;;;;5054895;28;20135;-69
2022/04/01 12:39:34;;;;;;;6.47;1.98;;;4.50;99.50;;;;;;5071937;28;20413;-67
2022/04/01 12:42:08;;;;;;;7.07;2.05;;;4.70;99.60;;;;;;5057145;28;20041;-68
2022/04/01 12:44:35;;;;;;;3.35;2.08;;;4.60;99.70;;;;;;5052451;28;20102;-68
2022/04/01 12:47:05;;;;;;;6.70;1.90;;;4.80;99.60;;;;;;5072946;28;20048;-69
2022/04/01 12:49:33;;;;;;;8.10;2.05;;;5.00;99.20;;;;;;5072746;28;20287;-69
2022/04/01 12:52:13;;;;;;;9.63;2.60;;;5.20;99.90;;;;;;5054776;28;20052;-69
2022/04/01 12:54:42;;;;;;;5.18;1.88;;;5.00;98.80;;;;;;5071950;28;20044;-68
2022/04/01 12:57:11;;;;;;;4.35;1.88;;;6.00;97.80;;;;;;5066854;28;20069;-69
2022/04/01 12:59:39;;;;;;;2.75;1.45;;;4.90;97.90;;;;;;5034926;28;20063;-69
2022/04/01 13:02:21;;;;;;;3.35;1.45;;;5.00;97.50;;;;;;5052576;28;20045;-70
2022/04/01 13:04:56;;;;;;;3.78;1.60;;;5.00;97.30;;;;;;5059897;28;20036;-69
2022/04/01 13:07:32;;;;;;;3.25;1.25;;;5.00;97.40;;;;;;5054498;28;20032;-69
2022/04/01 13:09:59;;;;;;;5.65;2.00;;;5.00;97.50;;;;;;5072524;28;20119;-68
2022/04/01 13:12:40;;;;;;;3.47;1.55;;;5.00;96.80;;;;;;5054887;28;20044;-69
2022/04/01 13:15:08;;;;;;;6.90;1.45;;;5.10;95.50;;;;;;5070409;28;20052;-70
2022/04/01 13:17:49;;;;;;;2.75;1.80;;;5.00;96.40;;;;;;5064821;28;20072;-69
2022/04/01 13:20:17;;;;;;;7.63;1.52;;;5.00;96.30;;;;;;5048648;28;20045;-68
2022/04/01 13:22:43;;;;;;;3.92;1.58;;;4.90;95.40;;;;;;5066430;28;20071;-70
2022/04/01 13:25:12;;;;;;;2.83;1.50;;;4.90;96.50;;;;;;5069258;28;20052;-69
2022/04/01 13:27:38;;;;;;;4.43;1.60;;;5.40;97.00;;;;;;5050923;28;20189;-69
2022/04/01 13:30:05;;;;;;;6.70;1.70;;;4.90;96.20;;;;;;5063629;28;20113;-69